Time;durP1;ratioP1;P1;durP2;ratioP2;P2;SDS_P1;SDS_P2;PMS_P1;PMS_P2;Temp;Humidity;BMP_temperature;BMP_pressure;BME280_temperature;BME280_humidity;BME280_pressure;Samples;Min_cycle;Max_cycle;Signal;HPM_P1;HPM_P2
2023/05/22 00:00:40;;;;;;;9.80;8.53;;;;;;;;;;5033075;28;20246;-91
2023/05/22 00:03:09;;;;;;;9.77;8.77;;;;;;;;;;5037354;28;20698;-92
2023/05/22 00:05:37;;;;;;;10.70;9.13;;;;;;;;;;5045024;28;20364;-91
2023/05/22 00:08:04;;;;;;;12.97;10.00;;;;;;;;;;5049611;28;20489;-91
2023/05/22 00:10:32;;;;;;;12.50;10.13;;;;;;;;;;5036530;28;20242;-92
2023/05/22 00:12:59;;;;;;;10.50;9.33;;;;;;;;;;5047575;28;20227;-91
2023/05/22 00:15:26;;;;;;;10.40;9.40;;;;;;;;;;5041193;28;20234;-92
2023/05/22 00:17:54;;;;;;;13.07;9.80;;;;;;;;;;5043421;28;20230;-92
2023/05/22 00:20:22;;;;;;;10.63;9.53;;;;;;;;;;5038477;28;20234;-92
2023/05/22 00:22:49;;;;;;;11.10;9.73;;;;;;;;;;5042188;28;20230;-93
2023/05/22 00:25:18;;;;;;;14.03;10.13;;;;;;;;;;5042571;28;20260;-92
2023/05/22 00:27:46;;;;;;;11.30;9.97;;;;;;;;;;5047698;28;20202;-92
2023/05/22 00:30:13;;;;;;;10.43;9.33;;;;;;;;;;5040806;28;20237;-92
2023/05/22 00:32:40;;;;;;;10.50;9.43;;;;;;;;;;5047948;28;20222;-93
2023/05/22 00:35:08;;;;;;;11.27;10.17;;;;;;;;;;5044558;28;20241;-93
2023/05/22 00:37:36;;;;;;;10.33;9.30;;;;;;;;;;5036448;28;20234;-93
2023/05/22 00:40:04;;;;;;;11.77;10.17;;;;;;;;;;5047749;28;20229;-92
2023/05/22 00:42:32;;;;;;;12.07;9.90;;;;;;;;;;5048299;28;20216;-93
2023/05/22 00:44:59;;;;;;;11.07;9.83;;;;;;;;;;5047629;28;20221;-93
2023/05/22 00:47:26;;;;;;;12.23;10.13;;;;;;;;;;5049966;28;20215;-92
2023/05/22 00:49:53;;;;;;;11.10;9.90;;;;;;;;;;5052694;28;20641;-93
2023/05/22 00:52:20;;;;;;;11.80;10.60;;;;;;;;;;5045560;28;20202;-92
2023/05/22 00:54:49;;;;;;;11.63;10.30;;;;;;;;;;5051789;28;20202;-92
2023/05/22 00:57:16;;;;;;;14.00;11.23;;;;;;;;;;5055568;28;20238;-92
2023/05/22 00:59:43;;;;;;;10.70;9.60;;;;;;;;;;5047430;28;20210;-93
2023/05/22 01:02:12;;;;;;;11.10;10.00;;;;;;;;;;5046986;28;20276;-92
2023/05/22 01:04:39;;;;;;;11.57;9.90;;;;;;;;;;5045868;28;20202;-92
2023/05/22 01:07:06;;;;;;;11.37;9.87;;;;;;;;;;5047035;28;20960;-92
2023/05/22 01:09:45;;;;;;;12.77;10.37;;;;;;;;;;5042756;28;20210;-93
2023/05/22 01:12:16;;;;;;;13.23;10.37;;;;;;;;;;5047823;28;20218;-92
2023/05/22 01:14:47;;;;;;;13.73;10.90;;;;;;;;;;5049353;28;20210;-92
2023/05/22 01:17:22;;;;;;;13.73;11.13;;;;;;;;;;5048357;28;20234;-92
2023/05/22 01:20:00;;;;;;;13.87;10.37;;;;;;;;;;5050377;28;20206;-92
2023/05/22 01:22:37;;;;;;;13.97;10.37;;;;;;;;;;5050317;28;20202;-93
2023/05/22 01:25:15;;;;;;;14.27;10.23;;;;;;;;;;5042747;28;20611;-92
2023/05/22 01:28:02;;;;;;;15.50;9.53;;;;;;;;;;5038164;28;20289;-92
2023/05/22 01:30:53;;;;;;;12.20;10.07;;;;;;;;;;5038377;28;20229;-92
2023/05/22 01:33:20;;;;;;;13.67;11.97;;;;;;;;;;5043500;28;20214;-92
2023/05/22 01:35:50;;;;;;;13.10;10.17;;;;;;;;;;5051336;28;20237;-92
2023/05/22 01:38:17;;;;;;;12.67;10.87;;;;;;;;;;5048115;28;20225;-92
2023/05/22 01:40:45;;;;;;;12.77;10.60;;;;;;;;;;5031654;28;20240;-92
2023/05/22 01:43:13;;;;;;;11.63;10.53;;;;;;;;;;5054992;28;20233;-92
2023/05/22 01:45:40;;;;;;;15.47;10.67;;;;;;;;;;5046895;28;20237;-92
2023/05/22 01:48:08;;;;;;;10.60;9.50;;;;;;;;;;5052633;28;20218;-91
2023/05/22 01:50:36;;;;;;;11.97;10.07;;;;;;;;;;5042597;28;20234;-92
2023/05/22 01:53:08;;;;;;;11.73;10.10;;;;;;;;;;5051517;28;20230;-92
2023/05/22 01:55:41;;;;;;;10.13;9.03;;;;;;;;;;5041816;28;20253;-92
2023/05/22 01:58:17;;;;;;;10.77;9.30;;;;;;;;;;5053690;28;20225;-91
2023/05/22 02:00:46;;;;;;;12.17;10.70;;;;;;;;;;5053212;28;20722;-92
2023/05/22 02:03:23;;;;;;;11.00;9.90;;;;;;;;;;5035158;28;20226;-92
2023/05/22 02:05:52;;;;;;;11.73;9.67;;;;;;;;;;5047689;28;20234;-92
2023/05/22 02:08:20;;;;;;;11.93;9.57;;;;;;;;;;5043884;28;20211;-92
2023/05/22 02:10:48;;;;;;;12.53;9.17;;;;;;;;;;5044994;28;20241;-92
2023/05/22 02:13:16;;;;;;;9.77;8.80;;;;;;;;;;5042128;28;20225;-91
2023/05/22 02:15:45;;;;;;;12.00;9.20;;;;;;;;;;5030447;28;20715;-92
2023/05/22 02:18:12;;;;;;;9.77;8.77;;;;;;;;;;5041693;28;20261;-92
2023/05/22 02:20:41;;;;;;;9.23;8.23;;;;;;;;;;5042329;28;20230;-92
2023/05/22 02:23:08;;;;;;;9.80;8.80;;;;;;;;;;5036015;28;20234;-91
2023/05/22 02:25:35;;;;;;;10.07;8.90;;;;;;;;;;5043697;28;20238;-92
2023/05/22 02:28:02;;;;;;;10.53;9.43;;;;;;;;;;5044923;28;20211;-92
2023/05/22 02:30:29;;;;;;;10.07;9.07;;;;;;;;;;5041915;28;20231;-93
2023/05/22 02:32:57;;;;;;;10.43;9.33;;;;;;;;;;5045199;28;20245;-92
2023/05/22 02:35:24;;;;;;;11.67;10.40;;;;;;;;;;5023804;28;20250;-92
2023/05/22 02:37:52;;;;;;;11.90;9.63;;;;;;;;;;5042534;28;20218;-92
2023/05/22 02:40:19;;;;;;;12.80;10.87;;;;;;;;;;5052754;28;20237;-92
2023/05/22 02:42:46;;;;;;;11.80;10.00;;;;;;;;;;5044042;28;20241;-92
2023/05/22 02:45:13;;;;;;;12.03;10.83;;;;;;;;;;5030936;28;20230;-92
2023/05/22 02:47:40;;;;;;;13.70;10.87;;;;;;;;;;5039071;28;20209;-92
2023/05/22 02:50:08;;;;;;;15.40;11.77;;;;;;;;;;5045978;28;20237;-92
2023/05/22 02:52:35;;;;;;;13.87;10.90;;;;;;;;;;5045470;28;20229;-92
2023/05/22 02:55:04;;;;;;;12.43;11.13;;;;;;;;;;5050147;28;20316;-93
2023/05/22 02:57:31;;;;;;;14.73;11.27;;;;;;;;;;5035391;28;20577;-92
2023/05/22 02:59:58;;;;;;;17.03;13.00;;;;;;;;;;5047271;28;20230;-92
2023/05/22 03:02:27;;;;;;;14.53;12.50;;;;;;;;;;5040707;28;20216;-92
2023/05/22 03:04:54;;;;;;;16.20;12.50;;;;;;;;;;5041871;28;20297;-92
2023/05/22 03:07:21;;;;;;;14.63;12.90;;;;;;;;;;5045497;28;20210;-92
2023/05/22 03:09:48;;;;;;;15.40;13.80;;;;;;;;;;5044823;28;20237;-91
2023/05/22 03:12:16;;;;;;;16.40;14.50;;;;;;;;;;5044650;28;20203;-92
2023/05/22 03:14:43;;;;;;;16.60;14.60;;;;;;;;;;5044787;28;20675;-90
2023/05/22 03:17:10;;;;;;;17.03;15.33;;;;;;;;;;5049560;28;20197;-92
2023/05/22 03:19:37;;;;;;;17.23;14.70;;;;;;;;;;5053349;28;20218;-92
2023/05/22 03:22:05;;;;;;;15.47;13.77;;;;;;;;;;5038895;28;20231;-91
2023/05/22 03:24:32;;;;;;;18.90;15.20;;;;;;;;;;5051689;28;20268;-92
2023/05/22 03:26:59;;;;;;;16.07;14.43;;;;;;;;;;5046686;28;20605;-92
2023/05/22 03:29:27;;;;;;;17.70;15.17;;;;;;;;;;5049708;28;20610;-92
2023/05/22 03:31:55;;;;;;;18.63;16.57;;;;;;;;;;5052179;28;20237;-92
2023/05/22 03:34:22;;;;;;;18.47;15.47;;;;;;;;;;5037602;28;20224;-92
2023/05/22 03:36:49;;;;;;;19.20;15.60;;;;;;;;;;5049188;28;20230;-92
2023/05/22 03:39:16;;;;;;;20.67;15.63;;;;;;;;;;5053128;28;20284;-92
2023/05/22 03:41:43;;;;;;;20.77;15.80;;;;;;;;;;5045515;28;20855;-92
2023/05/22 03:44:10;;;;;;;20.13;16.13;;;;;;;;;;5041170;28;20238;-92
2023/05/22 03:46:39;;;;;;;17.47;14.77;;;;;;;;;;5047480;28;20229;-92
2023/05/22 03:49:06;;;;;;;17.73;14.90;;;;;;;;;;5044884;28;20206;-92
2023/05/22 03:51:33;;;;;;;17.07;15.13;;;;;;;;;;5038674;28;20230;-92
2023/05/22 03:54:00;;;;;;;16.30;14.33;;;;;;;;;;5049410;28;20236;-92
2023/05/22 03:56:27;;;;;;;18.27;15.10;;;;;;;;;;5040987;28;20306;-92
2023/05/22 03:58:55;;;;;;;16.30;14.53;;;;;;;;;;5041429;28;20226;-92
2023/05/22 04:01:22;;;;;;;17.10;14.00;;;;;;;;;;5048238;28;20236;-91
2023/05/22 04:03:50;;;;;;;16.93;14.57;;;;;;;;;;5048875;28;20313;-92
2023/05/22 04:06:20;;;;;;;17.97;16.10;;;;;;;;;;5040357;28;20232;-92
2023/05/22 04:08:47;;;;;;;20.67;15.60;;;;;;;;;;5048582;28;20302;-92
2023/05/22 04:11:15;;;;;;;18.43;15.17;;;;;;;;;;5037489;28;20279;-91
2023/05/22 04:13:42;;;;;;;17.80;14.40;;;;;;;;;;5040051;28;20222;-92
2023/05/22 04:16:10;;;;;;;17.83;14.40;;;;;;;;;;5047721;28;20245;-93
2023/05/22 04:18:37;;;;;;;16.67;13.87;;;;;;;;;;5056531;28;20604;-91
2023/05/22 04:21:09;;;;;;;15.37;13.50;;;;;;;;;;5054322;28;20237;-92
2023/05/22 04:23:37;;;;;;;16.07;14.33;;;;;;;;;;5050674;28;20657;-91
2023/05/22 04:26:09;;;;;;;18.20;13.83;;;;;;;;;;5055955;28;20262;-91
2023/05/22 04:28:36;;;;;;;16.57;13.23;;;;;;;;;;5046497;28;20214;-91
2023/05/22 04:31:06;;;;;;;13.87;12.33;;;;;;;;;;5047800;28;20715;-91
2023/05/22 04:33:40;;;;;;;13.07;11.27;;;;;;;;;;5048120;28;20279;-91
2023/05/22 04:36:09;;;;;;;13.27;11.97;;;;;;;;;;5053793;28;20237;-91
2023/05/22 04:38:46;;;;;;;15.10;13.20;;;;;;;;;;5042406;28;20714;-90
2023/05/22 04:41:16;;;;;;;14.70;13.17;;;;;;;;;;5050294;28;20234;-90
2023/05/22 04:43:43;;;;;;;16.67;13.17;;;;;;;;;;5056123;28;20253;-91
2023/05/22 04:46:11;;;;;;;18.83;14.00;;;;;;;;;;5052238;28;20234;-92
2023/05/22 04:48:39;;;;;;;15.87;13.27;;;;;;;;;;5046352;28;20213;-92
2023/05/22 04:51:06;;;;;;;14.63;13.07;;;;;;;;;;5037751;28;20325;-92
2023/05/22 04:53:34;;;;;;;16.67;14.13;;;;;;;;;;5041412;28;20731;-93
2023/05/22 04:56:01;;;;;;;15.03;12.70;;;;;;;;;;5055438;28;20275;-93
2023/05/22 04:58:28;;;;;;;15.90;14.20;;;;;;;;;;5043025;28;20219;-90
2023/05/22 05:00:56;;;;;;;17.97;14.47;;;;;;;;;;5044140;28;20227;-89
2023/05/22 05:03:24;;;;;;;16.23;13.90;;;;;;;;;;5051713;28;20249;-90
2023/05/22 05:05:51;;;;;;;17.87;14.10;;;;;;;;;;5051277;28;20237;-91
2023/05/22 05:08:18;;;;;;;16.83;13.23;;;;;;;;;;5047264;28;20206;-93
2023/05/22 05:10:47;;;;;;;16.33;13.87;;;;;;;;;;5055116;28;20316;-96
2023/05/22 05:13:17;;;;;;;17.07;14.90;;;;;;;;;;5054809;28;20236;-91
2023/05/22 05:15:44;;;;;;;18.40;15.13;;;;;;;;;;5050565;28;20223;-90
2023/05/22 05:18:11;;;;;;;18.67;15.33;;;;;;;;;;5047778;28;20202;-92
2023/05/22 05:20:38;;;;;;;22.80;15.43;;;;;;;;;;5055346;28;20319;-92
2023/05/22 05:23:05;;;;;;;18.20;15.63;;;;;;;;;;5055150;28;20233;-91
2023/05/22 05:25:32;;;;;;;17.70;15.70;;;;;;;;;;5055215;28;20237;-91
2023/05/22 05:28:00;;;;;;;18.30;14.97;;;;;;;;;;5055201;28;20672;-92
2023/05/22 05:30:29;;;;;;;17.80;15.73;;;;;;;;;;5054903;28;20703;-91
2023/05/22 05:32:56;;;;;;;19.43;15.63;;;;;;;;;;5055091;28;20226;-91
2023/05/22 05:35:24;;;;;;;21.27;16.70;;;;;;;;;;5054843;28;20234;-91
2023/05/22 05:37:51;;;;;;;21.50;18.07;;;;;;;;;;5055553;28;20637;-91
2023/05/22 05:40:18;;;;;;;20.00;17.50;;;;;;;;;;5049677;28;20315;-91
2023/05/22 05:42:45;;;;;;;21.37;16.97;;;;;;;;;;5056247;28;20222;-91
2023/05/22 05:45:23;;;;;;;19.17;16.50;;;;;;;;;;5055882;28;20238;-91
2023/05/22 05:47:51;;;;;;;24.00;17.67;;;;;;;;;;5056804;28;20210;-90
2023/05/22 05:50:19;;;;;;;19.77;16.23;;;;;;;;;;5056034;28;20222;-90
2023/05/22 05:52:46;;;;;;;21.43;17.50;;;;;;;;;;5049725;28;20230;-90
2023/05/22 05:55:22;;;;;;;20.63;17.93;;;;;;;;;;5036750;28;21017;-90
2023/05/22 05:57:49;;;;;;;19.63;16.47;;;;;;;;;;5034891;28;20239;-90
2023/05/22 06:00:16;;;;;;;21.37;17.03;;;;;;;;;;5051458;28;20238;-89
2023/05/22 06:02:44;;;;;;;20.00;15.90;;;;;;;;;;5054967;28;20226;-90
2023/05/22 06:05:14;;;;;;;20.67;16.53;;;;;;;;;;5050409;28;20253;-90
2023/05/22 06:07:42;;;;;;;19.40;17.20;;;;;;;;;;5053205;28;20210;-90
2023/05/22 06:10:10;;;;;;;18.17;15.73;;;;;;;;;;5054023;28;20226;-90
2023/05/22 06:12:37;;;;;;;18.97;16.30;;;;;;;;;;5053756;28;20233;-90
2023/05/22 06:15:04;;;;;;;18.43;15.47;;;;;;;;;;5050728;28;20253;-90
2023/05/22 06:17:31;;;;;;;21.20;16.53;;;;;;;;;;5050774;28;20309;-90
2023/05/22 06:19:58;;;;;;;22.40;16.63;;;;;;;;;;5052020;28;20715;-90
2023/05/22 06:22:27;;;;;;;18.87;15.73;;;;;;;;;;5045885;28;20207;-89
2023/05/22 06:24:55;;;;;;;18.67;15.87;;;;;;;;;;5053651;28;20228;-90
2023/05/22 06:27:22;;;;;;;21.00;17.20;;;;;;;;;;5045691;28;20217;-90
2023/05/22 06:29:49;;;;;;;19.30;17.00;;;;;;;;;;5053423;28;20202;-90
2023/05/22 06:32:17;;;;;;;20.43;15.70;;;;;;;;;;5054441;28;20206;-90
2023/05/22 06:34:45;;;;;;;19.03;16.43;;;;;;;;;;5053781;28;20207;-90
2023/05/22 06:37:12;;;;;;;18.67;15.57;;;;;;;;;;5053670;28;20220;-90
2023/05/22 06:39:41;;;;;;;20.47;16.40;;;;;;;;;;5054080;28;20229;-90
2023/05/22 06:42:08;;;;;;;18.37;15.87;;;;;;;;;;5052227;28;20229;-90
2023/05/22 06:44:35;;;;;;;22.10;17.00;;;;;;;;;;5046811;28;20237;-90
2023/05/22 06:47:02;;;;;;;21.73;18.13;;;;;;;;;;5051758;28;20607;-90
2023/05/22 06:49:29;;;;;;;20.23;18.03;;;;;;;;;;5050681;28;20563;-90
2023/05/22 06:51:56;;;;;;;20.33;17.90;;;;;;;;;;5049132;28;20683;-90
2023/05/22 06:54:27;;;;;;;21.00;17.80;;;;;;;;;;5053254;28;20230;-90
2023/05/22 06:56:55;;;;;;;20.97;18.00;;;;;;;;;;5046134;28;20230;-91
2023/05/22 06:59:22;;;;;;;20.23;18.07;;;;;;;;;;5054168;28;20236;-91
2023/05/22 07:01:50;;;;;;;21.90;17.87;;;;;;;;;;5057288;28;20234;-90
2023/05/22 07:04:17;;;;;;;22.93;18.00;;;;;;;;;;5055908;28;20287;-90
2023/05/22 07:06:45;;;;;;;22.47;19.60;;;;;;;;;;5049263;28;20261;-90
2023/05/22 07:09:13;;;;;;;21.07;17.00;;;;;;;;;;5052002;28;20202;-91
2023/05/22 07:11:41;;;;;;;19.27;16.93;;;;;;;;;;5053003;28;20757;-90
2023/05/22 07:14:11;;;;;;;21.10;17.40;;;;;;;;;;5052833;28;20272;-90
2023/05/22 07:16:38;;;;;;;24.70;17.53;;;;;;;;;;5049304;28;20237;-90
2023/05/22 07:19:05;;;;;;;22.57;17.77;;;;;;;;;;5049701;28;20672;-90
2023/05/22 07:21:34;;;;;;;23.40;16.73;;;;;;;;;;5052839;28;20253;-90
2023/05/22 07:24:06;;;;;;;20.87;16.53;;;;;;;;;;5052958;28;20230;-90
2023/05/22 07:26:33;;;;;;;22.00;16.73;;;;;;;;;;5037599;28;20280;-90
2023/05/22 07:29:00;;;;;;;18.50;16.33;;;;;;;;;;5044644;28;20209;-90
2023/05/22 07:31:29;;;;;;;20.90;16.57;;;;;;;;;;5051959;28;20237;-90
2023/05/22 07:33:56;;;;;;;20.97;16.50;;;;;;;;;;5052621;28;20229;-90
2023/05/22 07:36:23;;;;;;;17.53;15.73;;;;;;;;;;5051848;28;20238;-90
2023/05/22 07:38:50;;;;;;;17.63;15.13;;;;;;;;;;5044982;28;20202;-90
2023/05/22 07:41:18;;;;;;;17.10;15.13;;;;;;;;;;5043608;28;20241;-89
2023/05/22 07:43:45;;;;;;;17.70;15.73;;;;;;;;;;5052738;28;20229;-91
2023/05/22 07:46:12;;;;;;;18.90;15.37;;;;;;;;;;5051954;28;20230;-90
2023/05/22 07:48:41;;;;;;;24.13;16.20;;;;;;;;;;5050770;28;20213;-90
2023/05/22 07:51:08;;;;;;;19.90;15.83;;;;;;;;;;5049435;28;20233;-90
2023/05/22 07:53:35;;;;;;;18.55;15.15;;;;;;;;;;5052621;28;20233;-90
2023/05/22 07:56:02;;;;;;;17.93;14.57;;;;;;;;;;5052494;28;20229;-90
2023/05/22 07:58:29;;;;;;;22.17;15.73;;;;;;;;;;5040052;28;20209;-91
2023/05/22 08:00:56;;;;;;;17.98;15.65;;;;;;;;;;5052814;28;20226;-90
2023/05/22 08:03:23;;;;;;;20.38;14.38;;;;;;;;;;5053312;28;20257;-89
2023/05/22 08:05:52;;;;;;;15.05;13.45;;;;;;;;;;5053031;28;20734;-91
2023/05/22 08:08:19;;;;;;;16.77;14.93;;;;;;;;;;5050089;28;20213;-90
2023/05/22 08:10:47;;;;;;;16.47;14.57;;;;;;;;;;5046229;28;20230;-90
2023/05/22 08:13:15;;;;;;;19.92;14.63;;;;;;;;;;5051264;28;20253;-91
2023/05/22 08:15:43;;;;;;;19.70;15.07;;;;;;;;;;5051567;28;20316;-90
2023/05/22 08:18:10;;;;;;;15.85;12.90;;;;;;;;;;5050559;28;20206;-91
2023/05/22 08:20:37;;;;;;;21.55;14.45;;;;;;;;;;5052341;28;20234;-90
2023/05/22 08:23:06;;;;;;;20.05;13.57;;;;;;;;;;5044535;28;20268;-90
2023/05/22 08:25:33;;;;;;;21.80;14.25;;;;;;;;;;5051823;28;20711;-90
2023/05/22 08:28:00;;;;;;;21.10;14.23;;;;;;;;;;5045237;28;20211;-90
2023/05/22 08:30:27;;;;;;;15.10;13.52;;;;;;;;;;5050894;28;20242;-90
2023/05/22 08:32:54;;;;;;;18.33;14.80;;;;;;;;;;5052182;28;20222;-90
2023/05/22 08:35:21;;;;;;;17.88;14.68;;;;;;;;;;5051678;28;20232;-91
2023/05/22 08:37:48;;;;;;;13.07;11.77;;;;;;;;;;5044038;28;20274;-90
2023/05/22 08:40:17;;;;;;;12.45;10.55;;;;;;;;;;5042593;28;20245;-90
2023/05/22 08:42:44;;;;;;;14.40;13.00;;;;;;;;;;5037906;28;20226;-90
2023/05/22 08:45:14;;;;;;;14.98;12.75;;;;;;;;;;5051557;28;20233;-89
2023/05/22 08:47:43;;;;;;;11.82;9.30;;;;;;;;;;5048504;28;20210;-89
2023/05/22 08:50:11;;;;;;;11.60;10.05;;;;;;;;;;5048244;28;20578;-90
2023/05/22 08:52:43;;;;;;;11.45;10.25;;;;;;;;;;5056423;28;20230;-90
2023/05/22 08:55:11;;;;;;;11.07;9.90;;;;;;;;;;5047422;28;20308;-90
2023/05/22 08:57:39;;;;;;;11.60;8.93;;;;;;;;;;5054750;28;20202;-90
2023/05/22 09:00:07;;;;;;;13.68;9.13;;;;;;;;;;5073396;28;20241;-90
2023/05/22 09:02:35;;;;;;;13.85;9.23;;;;;;;;;;5078271;28;20362;-91
2023/05/22 09:05:04;;;;;;;10.18;9.07;;;;;;;;;;5078115;28;20182;-90
2023/05/22 09:07:31;;;;;;;10.15;9.07;;;;;;;;;;5077969;28;20205;-91
2023/05/22 09:09:58;;;;;;;8.90;8.00;;;;;;;;;;5077724;28;20178;-91
2023/05/22 09:12:26;;;;;;;8.77;7.38;;;;;;;;;;5078207;28;20216;-90
2023/05/22 09:14:54;;;;;;;8.60;7.72;;;;;;;;;;5073925;28;20266;-91
2023/05/22 09:17:21;;;;;;;8.38;7.57;;;;;;;;;;5059361;28;20265;-90
2023/05/22 09:19:48;;;;;;;9.75;7.18;;;;;;;;;;5045276;28;20209;-91
2023/05/22 09:22:16;;;;;;;7.95;7.15;;;;;;;;;;5056818;28;20206;-90
2023/05/22 09:24:45;;;;;;;8.43;7.57;;;;;;;;;;5052766;28;20207;-90
2023/05/22 09:27:12;;;;;;;9.80;7.75;;;;;;;;;;5053501;28;20206;-91
2023/05/22 09:29:49;;;;;;;10.88;8.90;;;;;;;;;;5057186;28;20214;-92
2023/05/22 09:32:18;;;;;;;11.23;8.23;;;;;;;;;;5055994;28;20292;-90
2023/05/22 09:34:45;;;;;;;8.60;7.80;;;;;;;;;;5056789;28;20202;-89
2023/05/22 09:37:12;;;;;;;9.52;7.15;;;;;;;;;;5055651;28;20209;-91
2023/05/22 09:39:40;;;;;;;8.30;7.00;;;;;;;;;;5053604;28;20194;-91
2023/05/22 09:42:10;;;;;;;9.25;6.90;;;;;;;;;;5055544;28;20230;-91
2023/05/22 09:44:37;;;;;;;8.45;7.20;;;;;;;;;;5040190;28;20226;-91
2023/05/22 09:47:06;;;;;;;8.38;7.43;;;;;;;;;;5055467;28;20237;-90
2023/05/22 09:49:41;;;;;;;8.00;7.30;;;;;;;;;;5046379;28;20217;-91
2023/05/22 09:52:08;;;;;;;8.27;7.10;;;;;;;;;;5054241;28;20224;-90
2023/05/22 09:54:36;;;;;;;8.43;7.57;;;;;;;;;;5054497;28;20233;-91
2023/05/22 09:57:05;;;;;;;8.38;7.57;;;;;;;;;;5047549;28;20225;-92
2023/05/22 09:59:39;;;;;;;8.32;7.53;;;;;;;;;;5046804;28;20336;-91
2023/05/22 10:02:06;;;;;;;8.13;7.03;;;;;;;;;;5055087;28;20229;-91
2023/05/22 10:04:34;;;;;;;7.57;6.88;;;;;;;;;;5054823;28;20230;-90
2023/05/22 10:07:03;;;;;;;9.13;7.20;;;;;;;;;;5057587;28;20230;-91
2023/05/22 10:09:33;;;;;;;10.13;7.15;;;;;;;;;;5057236;28;20202;-90
2023/05/22 10:12:04;;;;;;;7.22;6.43;;;;;;;;;;5054318;28;20226;-90
2023/05/22 10:14:31;;;;;;;8.43;6.80;;;;;;;;;;5054278;28;20229;-90
2023/05/22 10:17:03;;;;;;;7.72;6.93;;;;;;;;;;5053922;28;20245;-91
2023/05/22 10:19:31;;;;;;;8.05;7.25;;;;;;;;;;5045808;28;20568;-90
2023/05/22 10:22:00;;;;;;;7.88;7.07;;;;;;;;;;5053468;28;20230;-90
2023/05/22 10:24:36;;;;;;;8.43;6.95;;;;;;;;;;5051732;28;20264;-89
2023/05/22 10:27:03;;;;;;;8.00;7.15;;;;;;;;;;5048879;28;20226;-90
2023/05/22 10:29:34;;;;;;;7.93;7.10;;;;;;;;;;5073655;22;20225;-86
2023/05/22 10:32:04;;;;;;;7.82;7.07;;;;;;;;;;5059900;28;20308;-86
2023/05/22 10:34:35;;;;;;;7.85;7.15;;;;;;;;;;5070809;28;20213;-86
2023/05/22 10:37:10;;;;;;;8.13;7.32;;;;;;;;;;5063397;28;20233;-86
2023/05/22 10:39:43;;;;;;;7.90;7.10;;;;;;;;;;5066279;28;20630;-85
2023/05/22 10:42:13;;;;;;;7.93;7.13;;;;;;;;;;5059163;28;20272;-86
2023/05/22 10:44:40;;;;;;;7.45;6.75;;;;;;;;;;5047016;28;20292;-85
2023/05/22 10:47:10;;;;;;;8.30;7.50;;;;;;;;;;5063482;28;20225;-86
2023/05/22 10:49:38;;;;;;;8.75;7.45;;;;;;;;;;5056308;28;20225;-86
2023/05/22 10:52:05;;;;;;;8.88;6.90;;;;;;;;;;5064635;28;20279;-86
2023/05/22 10:54:43;;;;;;;7.78;6.97;;;;;;;;;;5060479;28;20580;-86
2023/05/22 10:57:12;;;;;;;8.02;7.22;;;;;;;;;;5060540;28;20220;-87
2023/05/22 10:59:39;;;;;;;7.53;6.82;;;;;;;;;;5068259;28;20229;-86
2023/05/22 11:02:06;;;;;;;7.97;7.28;;;;;;;;;;5063611;28;20230;-87
2023/05/22 11:04:33;;;;;;;8.00;7.20;;;;;;;;;;5071058;28;20209;-83
2023/05/22 11:07:05;;;;;;;8.43;7.53;;;;;;;;;;5070526;28;20229;-82
2023/05/22 11:09:33;;;;;;;8.93;7.05;;;;;;;;;;5058837;28;20325;-83
2023/05/22 11:12:21;;;;;;;9.35;7.93;;;;;;;;;;5055348;28;20307;-83
2023/05/22 11:14:48;;;;;;;9.50;8.23;;;;;;;;;;5046949;28;20201;-82
2023/05/22 11:17:18;;;;;;;9.95;7.72;;;;;;;;;;5068510;28;20846;-84
2023/05/22 11:19:48;;;;;;;8.93;8.02;;;;;;;;;;5048731;28;20229;-82
2023/05/22 11:22:17;;;;;;;7.85;7.05;;;;;;;;;;5056881;28;20214;-83
2023/05/22 11:24:45;;;;;;;8.27;7.35;;;;;;;;;;5054115;28;20216;-83
2023/05/22 11:27:12;;;;;;;7.90;6.88;;;;;;;;;;5061112;28;20291;-83
2023/05/22 11:29:44;;;;;;;8.48;7.68;;;;;;;;;;5057142;28;20230;-83
2023/05/22 11:32:14;;;;;;;9.00;7.82;;;;;;;;;;5057223;28;20256;-83
2023/05/22 11:34:41;;;;;;;8.90;8.10;;;;;;;;;;5065913;28;20217;-83
2023/05/22 11:37:08;;;;;;;8.75;7.95;;;;;;;;;;5050085;28;20279;-83
2023/05/22 11:39:35;;;;;;;8.70;7.85;;;;;;;;;;5052476;28;20330;-83
2023/05/22 11:42:03;;;;;;;9.55;8.57;;;;;;;;;;5044685;28;20696;-83
2023/05/22 11:44:31;;;;;;;9.45;8.45;;;;;;;;;;5058212;28;20213;-83
2023/05/22 11:47:00;;;;;;;9.10;7.90;;;;;;;;;;5055681;28;20273;-83
2023/05/22 11:49:28;;;;;;;8.07;7.18;;;;;;;;;;5058534;28;20241;-82
2023/05/22 11:51:55;;;;;;;8.45;7.75;;;;;;;;;;5060613;28;20222;-83
2023/05/22 11:54:22;;;;;;;9.27;8.48;;;;;;;;;;5059991;28;20209;-83
2023/05/22 11:56:49;;;;;;;8.77;7.85;;;;;;;;;;5068862;28;20236;-83
2023/05/22 11:59:16;;;;;;;8.55;7.75;;;;;;;;;;5053583;28;20236;-82
2023/05/22 12:01:43;;;;;;;10.35;8.70;;;;;;;;;;5056917;28;20232;-83
2023/05/22 12:04:11;;;;;;;9.30;8.27;;;;;;;;;;5058296;28;20260;-81
2023/05/22 12:06:38;;;;;;;10.32;7.80;;;;;;;;;;5054703;28;20708;-82
2023/05/22 12:09:07;;;;;;;9.18;8.27;;;;;;;;;;5055556;28;20209;-82
2023/05/22 12:11:35;;;;;;;9.25;8.32;;;;;;;;;;5054767;28;20226;-82
2023/05/22 12:14:03;;;;;;;9.73;8.20;;;;;;;;;;5049935;28;20214;-82
2023/05/22 12:16:34;;;;;;;9.07;8.15;;;;;;;;;;5049427;28;20225;-82
2023/05/22 12:19:05;;;;;;;10.45;8.75;;;;;;;;;;5054527;28;20240;-82
2023/05/22 12:21:34;;;;;;;11.82;8.23;;;;;;;;;;5058519;28;20316;-82
2023/05/22 12:24:03;;;;;;;9.35;8.30;;;;;;;;;;5053587;28;20209;-82
2023/05/22 12:26:30;;;;;;;9.15;8.23;;;;;;;;;;5052927;28;20256;-82
2023/05/22 12:28:58;;;;;;;9.38;8.13;;;;;;;;;;5053584;28;20209;-82
2023/05/22 12:31:25;;;;;;;10.57;8.15;;;;;;;;;;5052211;28;20749;-82
2023/05/22 12:33:54;;;;;;;8.68;7.85;;;;;;;;;;5053293;28;20220;-82
2023/05/22 12:36:21;;;;;;;8.43;7.63;;;;;;;;;;5052613;28;20253;-82
2023/05/22 12:38:50;;;;;;;8.43;7.63;;;;;;;;;;5053410;28;20228;-82
2023/05/22 12:41:17;;;;;;;8.80;8.00;;;;;;;;;;5056292;28;20836;-83
2023/05/22 12:43:44;;;;;;;9.10;8.27;;;;;;;;;;5052709;28;20224;-82
2023/05/22 12:46:11;;;;;;;9.75;8.05;;;;;;;;;;5052099;28;20232;-82
2023/05/22 12:48:38;;;;;;;9.45;7.60;;;;;;;;;;5052738;28;20260;-82
2023/05/22 12:51:08;;;;;;;8.30;7.50;;;;;;;;;;5055253;28;20229;-82
2023/05/22 12:53:35;;;;;;;10.25;8.18;;;;;;;;;;5052089;28;20209;-82
2023/05/22 12:56:04;;;;;;;8.63;7.75;;;;;;;;;;5045915;28;20233;-82
2023/05/22 12:58:31;;;;;;;9.63;7.30;;;;;;;;;;5032581;28;20213;-82
2023/05/22 13:00:58;;;;;;;7.93;7.22;;;;;;;;;;5053362;28;20275;-82
2023/05/22 13:03:25;;;;;;;9.50;7.70;;;;;;;;;;5059235;28;20213;-82
2023/05/22 13:05:52;;;;;;;8.70;7.35;;;;;;;;;;5052513;28;20238;-82
2023/05/22 13:08:21;;;;;;;8.55;7.75;;;;;;;;;;5047748;28;20206;-82
2023/05/22 13:10:48;;;;;;;8.57;7.78;;;;;;;;;;5057936;28;20233;-82
2023/05/22 13:13:16;;;;;;;8.80;7.90;;;;;;;;;;5052154;28;20206;-83
2023/05/22 13:15:43;;;;;;;7.90;7.10;;;;;;;;;;5052094;28;20261;-82
2023/05/22 13:18:10;;;;;;;8.20;7.38;;;;;;;;;;5053375;28;20255;-82
2023/05/22 13:20:38;;;;;;;7.57;6.88;;;;;;;;;;5053222;28;20616;-82
2023/05/22 13:23:06;;;;;;;8.55;7.43;;;;;;;;;;5052096;28;20233;-82
2023/05/22 13:25:33;;;;;;;7.85;7.15;;;;;;;;;;5054957;28;20609;-82
2023/05/22 13:28:00;;;;;;;7.68;6.97;;;;;;;;;;5057488;28;20659;-81
2023/05/22 13:30:29;;;;;;;7.45;6.70;;;;;;;;;;5053232;28;20234;-82
2023/05/22 13:32:56;;;;;;;7.78;6.85;;;;;;;;;;5057381;28;20631;-84
2023/05/22 13:35:23;;;;;;;7.18;6.18;;;;;;;;;;5053462;28;20256;-82
2023/05/22 13:37:50;;;;;;;8.10;7.20;;;;;;;;;;5060551;28;20202;-83
2023/05/22 13:40:18;;;;;;;8.48;6.38;;;;;;;;;;5052048;28;20713;-82
2023/05/22 13:42:45;;;;;;;8.55;6.70;;;;;;;;;;5052514;28;20246;-81
2023/05/22 13:45:12;;;;;;;7.22;6.50;;;;;;;;;;5057246;28;20226;-83
2023/05/22 13:47:40;;;;;;;8.38;6.15;;;;;;;;;;5052121;28;20206;-83
2023/05/22 13:50:08;;;;;;;7.30;6.60;;;;;;;;;;5051741;28;20601;-83
2023/05/22 13:52:35;;;;;;;8.85;6.47;;;;;;;;;;5051848;28;20217;-82
2023/05/22 13:55:02;;;;;;;6.43;5.82;;;;;;;;;;5058685;28;20351;-83
2023/05/22 13:57:29;;;;;;;8.57;6.55;;;;;;;;;;5060531;28;20603;-83
2023/05/22 13:59:56;;;;;;;7.07;6.35;;;;;;;;;;5055692;28;20221;-83
2023/05/22 14:02:23;;;;;;;9.05;6.03;;;;;;;;;;5055828;28;20222;-84
2023/05/22 14:04:52;;;;;;;6.72;6.13;;;;;;;;;;5055811;28;20213;-83
2023/05/22 14:07:19;;;;;;;8.93;6.43;;;;;;;;;;5051965;28;20206;-84
2023/05/22 14:09:46;;;;;;;7.15;5.50;;;;;;;;;;5050497;28;20221;-83
2023/05/22 14:12:13;;;;;;;6.43;5.30;;;;;;;;;;5051548;28;20215;-84
2023/05/22 14:14:40;;;;;;;6.75;6.20;;;;;;;;;;5050746;28;20210;-84
2023/05/22 14:17:08;;;;;;;7.15;5.88;;;;;;;;;;5050303;28;20488;-83
2023/05/22 14:19:35;;;;;;;9.77;7.20;;;;;;;;;;5051482;28;20230;-83
2023/05/22 14:22:03;;;;;;;6.95;6.30;;;;;;;;;;5050549;28;20226;-83
2023/05/22 14:24:31;;;;;;;7.30;6.60;;;;;;;;;;5047844;28;20586;-82
2023/05/22 14:26:58;;;;;;;6.40;5.35;;;;;;;;;;5051076;28;20288;-82
2023/05/22 14:29:25;;;;;;;5.97;5.28;;;;;;;;;;5051142;28;20238;-82
2023/05/22 14:31:52;;;;;;;6.50;5.07;;;;;;;;;;5050522;28;20261;-83
2023/05/22 14:34:19;;;;;;;6.15;5.55;;;;;;;;;;5051659;28;20209;-83